• Join FlightAware (Why Join?)
  • Login
  • US Flag 
11:18PM EDT


 

Airport Tracker/Info


-or-


 

Live Flight TrackerFlight Track Log ✈ FLG4159 ✈ 09-Jun-2013 ✈ KMBS - KDTW

Flight Track Log - Related Links

Times and Time Zones

All times are in EDT time to prevent confusion due to time zone crossing. See the FLG4159 flight status page for this flight to view local times or setup timezone preferences in your user account.

Time Position Orientation Groundspeed Altitude Reporting Facility
EDT Latitude Longitude Course Direction KTS MPH feet Rate Location/Type
06:56AM 43.3800 -83.9938 158° South  Level Estimated
06:57AM 43.3279 -83.9691 161° South  Level FlightAware Approximate
06:58AM 43.2759 -83.9446 161° South  Level FlightAware Approximate
06:59AM 43.2023 -83.9030 161° South  Level Estimated
07:00AM 43.1270 -83.8681 161° South  Level FlightAware Approximate
07:01AM 43.0516 -83.8334 161° South  Level FlightAware Approximate
07:01AM 42.9958 -83.8306 159° South 263 303 6,000  Level Cleveland Center
07:02AM 42.9763 -83.7988 161° South  Level FlightAware Approximate
07:02AM 42.9589 -83.8117 159° South 262 302 6,000  Level Cleveland Center
07:03AM 42.9009 -83.7642 161° South  Level FlightAware Approximate
07:03AM 42.8933 -83.7714 156° South 260 299 6,000  Level Cleveland Center
07:04AM 42.8282 -83.7204 160° South  Level Estimated
07:04AM 42.8092 -83.7219 157° South 260 299 6,000  Level Cleveland Center
07:05AM 42.7554 -83.6766 152° Southeast  Level Estimated
07:05AM 42.7456 -83.6847 157° South 263 303 6,000  Level Cleveland Center
07:06AM 42.6827 -83.6329 159° South  Level Estimated
07:06AM 42.6947 -83.6456 150° Southeast 269 310 6,000  Level Cleveland Center
07:07AM 42.6192 -83.5990 159° South  Level FlightAware Approximate
07:07AM 42.6425 -83.5639 131° Southeast 271 312 6,000  Level Cleveland Center
07:08AM 42.5858 -83.4936 138° Southeast 270 311 6,000  Level Cleveland Center
07:09AM 42.5253 -83.4231 139° Southeast 270 311 6,000 -420 Level Cleveland Center
07:10AM 42.4661 -83.3642 144° Southeast 261 300 5,200 -1,080 Descending Cleveland Center
07:11AM 42.4153 -83.3086 141° Southeast 247 284 4,000 -900 Descending Cleveland Center
07:12AM 42.3531 -83.3031 176° South 204 235 3,500 -540 Descending Cleveland Center